createdAt,value
2019-05-14T00:00:13.034Z,4.23
2019-05-14T00:00:32.368Z,5.60
2019-05-14T00:01:32.383Z,5.90
2019-05-14T00:02:32.399Z,5.60
2019-05-14T00:02:41.954Z,2.90
2019-05-14T00:03:32.548Z,4.30
2019-05-14T00:04:32.429Z,4.30
2019-05-14T00:05:12.183Z,3.27
2019-05-14T00:05:32.445Z,4.40
2019-05-14T00:06:32.457Z,4.80
2019-05-14T00:07:32.472Z,4.00
2019-05-14T00:07:41.463Z,2.73
2019-05-14T00:08:32.484Z,3.00
2019-05-14T00:09:32.502Z,2.40
2019-05-14T00:10:11.905Z,2.10
2019-05-14T00:10:32.515Z,2.50
2019-05-14T00:11:32.532Z,2.80
2019-05-14T00:12:32.545Z,2.60
2019-05-14T00:12:41.833Z,1.90
2019-05-14T00:13:32.556Z,2.00
2019-05-14T00:14:39.536Z,2.50
2019-05-14T00:15:11.117Z,1.70
2019-05-14T00:15:32.589Z,2.40
2019-05-14T00:16:32.603Z,2.00
2019-05-14T00:17:32.623Z,1.60
2019-05-14T00:17:41.641Z,1.80
2019-05-14T00:18:32.630Z,1.90
2019-05-14T00:19:32.647Z,2.00
2019-05-14T00:20:13.344Z,1.33
2019-05-14T00:20:32.663Z,1.70
2019-05-14T00:21:32.680Z,1.80
2019-05-14T00:22:32.690Z,2.10
2019-05-14T00:22:41.813Z,1.67
2019-05-14T00:23:32.702Z,3.20
2019-05-14T00:24:32.722Z,3.20
2019-05-14T00:25:11.759Z,4.20
2019-05-14T00:25:32.736Z,3.90
2019-05-14T00:26:32.746Z,6.80
2019-05-14T00:27:32.763Z,7.80
2019-05-14T00:27:41.454Z,3.40
2019-05-14T00:28:32.776Z,6.70
2019-05-14T00:29:32.982Z,4.40
2019-05-14T00:30:11.511Z,3.10
2019-05-14T00:30:32.809Z,3.80
2019-05-14T00:31:32.824Z,4.80
2019-05-14T00:32:32.838Z,4.40
2019-05-14T00:32:41.468Z,3.13
2019-05-14T00:33:32.853Z,3.40
2019-05-14T00:34:32.869Z,3.60
2019-05-14T00:35:11.073Z,1.97
2019-05-14T00:35:35.703Z,3.10
2019-05-14T00:36:32.892Z,3.10
2019-05-14T00:37:32.911Z,3.00
2019-05-14T00:37:41.475Z,2.30
2019-05-14T00:38:32.932Z,3.10
2019-05-14T00:39:32.940Z,2.90
2019-05-14T00:40:11.781Z,2.30
2019-05-14T00:40:32.955Z,2.90
2019-05-14T00:41:32.967Z,3.30
2019-05-14T00:42:32.981Z,3.20
2019-05-14T00:42:41.581Z,2.30
2019-05-14T00:43:32.996Z,3.10
2019-05-14T00:44:33.007Z,2.80
2019-05-14T00:45:11.513Z,2.23
2019-05-14T00:45:33.046Z,2.30
2019-05-14T00:46:33.042Z,3.00
2019-05-14T00:47:33.058Z,2.50
2019-05-14T00:47:41.753Z,2.43
2019-05-14T00:48:33.070Z,2.70
2019-05-14T00:49:33.262Z,2.50
2019-05-14T00:50:11.405Z,2.13
2019-05-14T00:50:33.096Z,2.70
2019-05-14T00:51:33.109Z,2.40
2019-05-14T00:52:33.122Z,3.10
2019-05-14T00:52:44.174Z,4.10
2019-05-14T00:53:33.136Z,4.60
2019-05-14T00:54:33.155Z,3.60
2019-05-14T00:55:11.746Z,3.60
2019-05-14T00:55:33.169Z,4.20
2019-05-14T00:56:33.208Z,5.10
2019-05-14T00:57:33.198Z,3.80
2019-05-14T00:57:42.516Z,3.40
2019-05-14T00:58:33.214Z,4.10
2019-05-14T00:59:33.225Z,4.70
2019-05-14T01:00:11.737Z,2.60
2019-05-14T01:00:33.241Z,5.80
2019-05-14T01:01:33.257Z,4.50
2019-05-14T01:02:33.271Z,4.10
2019-05-14T01:02:41.562Z,3.77
2019-05-14T01:03:33.281Z,4.60
2019-05-14T01:04:33.295Z,4.40
2019-05-14T01:05:12.415Z,3.30
2019-05-14T01:05:33.312Z,4.20
2019-05-14T01:06:33.326Z,4.70
2019-05-14T01:07:33.345Z,3.90
2019-05-14T01:07:42.285Z,2.13
2019-05-14T01:08:33.354Z,2.90
2019-05-14T01:09:33.368Z,3.20
2019-05-14T01:10:11.668Z,2.70
2019-05-14T01:10:33.379Z,2.90
2019-05-14T01:11:33.396Z,3.00
2019-05-14T01:12:33.408Z,3.20
2019-05-14T01:12:41.409Z,2.73
2019-05-14T01:13:33.423Z,3.00
2019-05-14T01:14:33.438Z,3.00
2019-05-14T01:15:13.781Z,2.10
2019-05-14T01:15:33.454Z,3.40
2019-05-14T01:16:33.469Z,3.10
2019-05-14T01:17:33.488Z,3.60
2019-05-14T01:17:42.175Z,2.73
2019-05-14T01:18:33.500Z,3.20
2019-05-14T01:19:33.511Z,3.50
2019-05-14T01:20:12.311Z,2.50
2019-05-14T01:20:33.526Z,3.80
2019-05-14T01:21:33.539Z,3.40
2019-05-14T01:22:33.560Z,3.00
2019-05-14T01:22:42.193Z,1.83
2019-05-14T01:23:33.569Z,3.00
2019-05-14T01:24:33.582Z,2.90
2019-05-14T01:25:12.027Z,2.60
2019-05-14T01:25:33.599Z,2.80
2019-05-14T01:26:33.610Z,3.00
2019-05-14T01:27:33.636Z,2.90
2019-05-14T01:27:41.343Z,2.23
2019-05-14T01:28:33.637Z,3.00
2019-05-14T01:29:33.659Z,3.10
2019-05-14T01:30:12.501Z,2.63
2019-05-14T01:30:33.669Z,3.10
2019-05-14T01:31:33.686Z,3.10
2019-05-14T01:32:33.693Z,3.10
2019-05-14T01:32:42.052Z,2.60
2019-05-14T01:33:33.709Z,2.90
2019-05-14T01:34:33.725Z,2.90
2019-05-14T01:35:12.087Z,2.17
2019-05-14T01:35:33.737Z,2.80
2019-05-14T01:36:33.757Z,3.30
2019-05-14T01:37:33.798Z,2.90
2019-05-14T01:37:41.586Z,2.40
2019-05-14T01:38:33.913Z,2.90
2019-05-14T01:39:33.799Z,2.70
2019-05-14T01:40:11.469Z,1.97
2019-05-14T01:40:33.813Z,3.00
2019-05-14T01:41:33.826Z,3.00
2019-05-14T01:42:33.838Z,2.50
2019-05-14T01:42:41.571Z,2.40
2019-05-14T01:43:33.850Z,2.80
2019-05-14T01:44:33.868Z,2.60
2019-05-14T01:45:23.926Z,2.47
2019-05-14T01:45:33.879Z,3.30
2019-05-14T01:46:33.894Z,2.70
2019-05-14T01:47:33.907Z,2.90
2019-05-14T01:47:41.615Z,2.40
2019-05-14T01:48:33.923Z,2.60
2019-05-14T01:49:33.940Z,2.50
2019-05-14T01:50:11.328Z,1.97
2019-05-14T01:50:33.952Z,2.80
2019-05-14T01:51:33.969Z,2.50
2019-05-14T01:52:33.974Z,3.00
2019-05-14T01:52:41.471Z,2.17
2019-05-14T01:53:34.008Z,3.10
2019-05-14T01:54:34.010Z,2.80
2019-05-14T01:55:11.394Z,2.10
2019-05-14T01:55:34.022Z,2.90
2019-05-14T01:56:34.032Z,2.90
2019-05-14T01:57:34.049Z,2.80
2019-05-14T01:57:42.543Z,2.57
2019-05-14T01:58:34.062Z,2.70
2019-05-14T01:59:34.072Z,2.80
2019-05-14T02:00:11.535Z,2.37
2019-05-14T02:00:34.088Z,2.80
2019-05-14T02:01:34.106Z,2.90
2019-05-14T02:02:34.115Z,3.40
2019-05-14T02:02:41.805Z,2.37
2019-05-14T02:03:34.132Z,3.10
2019-05-14T02:04:34.143Z,3.40
2019-05-14T02:05:12.515Z,2.30
2019-05-14T02:05:34.160Z,2.70
2019-05-14T02:06:34.169Z,2.90
2019-05-14T02:07:34.185Z,2.70
2019-05-14T02:07:42.023Z,2.23
2019-05-14T02:08:34.200Z,2.90
2019-05-14T02:09:34.211Z,3.40
2019-05-14T02:10:11.752Z,2.13
2019-05-14T02:10:34.228Z,2.80
2019-05-14T02:11:34.241Z,2.90
2019-05-14T02:12:34.257Z,3.00
2019-05-14T02:12:42.306Z,2.40
2019-05-14T02:13:34.423Z,2.80
2019-05-14T02:14:34.282Z,2.80
2019-05-14T02:15:12.024Z,2.50
2019-05-14T02:15:39.564Z,2.80
2019-05-14T02:16:34.310Z,3.30
2019-05-14T02:17:34.324Z,3.10
2019-05-14T02:17:41.556Z,2.30
2019-05-14T02:18:34.344Z,3.00
2019-05-14T02:19:34.353Z,2.60
2019-05-14T02:20:12.566Z,2.53
2019-05-14T02:20:34.368Z,2.70
2019-05-14T02:21:34.384Z,2.70
2019-05-14T02:22:34.392Z,3.30
2019-05-14T02:22:41.696Z,2.43
2019-05-14T02:23:34.407Z,3.00
2019-05-14T02:24:34.421Z,2.60
2019-05-14T02:25:11.636Z,2.33
2019-05-14T02:25:34.438Z,3.10
2019-05-14T02:26:34.450Z,2.70
2019-05-14T02:27:34.969Z,2.90
2019-05-14T02:27:41.435Z,2.80
2019-05-14T02:28:34.477Z,2.50
2019-05-14T02:29:34.490Z,2.50
2019-05-14T02:30:10.670Z,2.00
2019-05-14T02:30:48.255Z,3.10
2019-05-14T02:31:34.517Z,2.70
2019-05-14T02:32:34.531Z,2.60
2019-05-14T02:32:40.616Z,1.93
2019-05-14T02:33:34.548Z,2.40
2019-05-14T02:34:34.562Z,2.70
2019-05-14T02:35:10.273Z,2.20
2019-05-14T02:35:34.577Z,2.50
2019-05-14T02:36:34.593Z,2.60
2019-05-14T02:37:34.603Z,2.80
2019-05-14T02:37:40.182Z,2.80
2019-05-14T02:38:34.619Z,2.80
2019-05-14T02:39:34.631Z,2.60
2019-05-14T02:40:09.972Z,2.60
2019-05-14T02:40:34.652Z,2.80
2019-05-14T02:41:34.662Z,2.40
2019-05-14T02:42:34.677Z,2.60
2019-05-14T02:42:40.189Z,2.40
2019-05-14T02:43:34.689Z,2.90
2019-05-14T02:44:34.704Z,3.10
2019-05-14T02:45:09.640Z,2.80
2019-05-14T02:45:34.721Z,3.70
2019-05-14T02:46:34.737Z,3.20
2019-05-14T02:47:34.747Z,3.80
2019-05-14T02:47:39.582Z,3.33
2019-05-14T02:48:34.797Z,3.60
2019-05-14T02:49:34.777Z,3.80
2019-05-14T02:50:10.234Z,3.17
2019-05-14T02:50:34.793Z,3.70
2019-05-14T02:51:34.807Z,3.40
2019-05-14T02:52:34.825Z,3.60
2019-05-14T02:52:40.295Z,2.77
2019-05-14T02:53:34.838Z,3.70
2019-05-14T02:54:34.855Z,3.10
2019-05-14T02:55:09.653Z,3.23
2019-05-14T02:55:34.864Z,3.30
2019-05-14T02:56:34.881Z,4.40
2019-05-14T02:57:34.898Z,3.00
2019-05-14T02:57:39.439Z,2.40
2019-05-14T02:58:34.915Z,2.80
2019-05-14T02:59:34.924Z,3.30
2019-05-14T03:00:10.128Z,2.60
2019-05-14T03:00:34.937Z,3.20
2019-05-14T03:01:34.956Z,3.20
2019-05-14T03:02:34.970Z,3.00
2019-05-14T03:02:40.464Z,2.20
2019-05-14T03:03:34.984Z,3.00
2019-05-14T03:04:34.999Z,3.10
2019-05-14T03:05:10.057Z,2.77
2019-05-14T03:05:35.012Z,2.90
2019-05-14T03:06:35.038Z,2.70
2019-05-14T03:07:35.044Z,3.00
2019-05-14T03:07:39.673Z,2.70
2019-05-14T03:08:35.056Z,3.10
2019-05-14T03:09:35.072Z,3.10
2019-05-14T03:10:09.901Z,2.33
2019-05-14T03:10:35.088Z,3.60
2019-05-14T03:11:35.100Z,3.00
2019-05-14T03:12:35.120Z,3.10
2019-05-14T03:12:39.850Z,2.53
2019-05-14T03:13:35.131Z,3.30
2019-05-14T03:14:35.143Z,2.80
2019-05-14T03:15:09.801Z,2.30
2019-05-14T03:15:35.156Z,3.10
2019-05-14T03:16:35.964Z,3.10
2019-05-14T03:17:35.190Z,3.20
2019-05-14T03:17:40.358Z,2.40
2019-05-14T03:18:35.358Z,3.20
2019-05-14T03:19:35.265Z,3.10
2019-05-14T03:20:09.477Z,3.10
2019-05-14T03:20:35.229Z,2.60
2019-05-14T03:21:35.245Z,2.70
2019-05-14T03:22:52.594Z,3.00
2019-05-14T03:22:53.641Z,2.43
2019-05-14T03:23:35.276Z,3.20
2019-05-14T03:24:35.290Z,2.80
2019-05-14T03:25:10.185Z,2.63
2019-05-14T03:25:35.302Z,3.00
2019-05-14T03:26:35.321Z,2.80
2019-05-14T03:27:35.333Z,3.10
2019-05-14T03:27:40.516Z,2.50
2019-05-14T03:28:35.350Z,2.60
2019-05-14T03:29:35.361Z,3.00
2019-05-14T03:30:12.304Z,2.67
2019-05-14T03:30:35.383Z,3.20
2019-05-14T03:31:35.405Z,3.30
2019-05-14T03:32:35.407Z,3.10
2019-05-14T03:32:42.561Z,2.57
2019-05-14T03:33:35.431Z,3.10
2019-05-14T03:34:41.862Z,3.00
2019-05-14T03:35:13.613Z,3.03
2019-05-14T03:35:44.609Z,2.70
2019-05-14T03:36:35.841Z,3.00
2019-05-14T03:37:35.484Z,2.80
2019-05-14T03:37:41.452Z,2.30
2019-05-14T03:38:35.496Z,3.30
2019-05-14T03:39:35.509Z,3.10
2019-05-14T03:40:11.808Z,2.60
2019-05-14T03:40:35.525Z,2.90
2019-05-14T03:41:35.545Z,3.20
2019-05-14T03:42:35.552Z,3.30
2019-05-14T03:42:40.686Z,2.70
2019-05-14T03:43:38.897Z,3.20
2019-05-14T03:44:35.583Z,3.10
2019-05-14T03:45:09.872Z,3.07
2019-05-14T03:45:38.895Z,3.20
2019-05-14T03:46:45.700Z,2.80
2019-05-14T03:47:39.123Z,3.30
2019-05-14T03:47:39.412Z,2.80
2019-05-14T03:48:35.643Z,3.40
2019-05-14T03:49:35.661Z,3.10
2019-05-14T03:50:10.225Z,3.23
2019-05-14T03:50:38.737Z,3.30
2019-05-14T03:51:35.688Z,3.60
2019-05-14T03:52:35.700Z,3.50
2019-05-14T03:52:40.130Z,2.90
2019-05-14T03:53:52.297Z,3.30
2019-05-14T03:54:35.728Z,3.00
2019-05-14T03:55:10.088Z,2.90
2019-05-14T03:55:35.769Z,3.50
2019-05-14T03:56:39.212Z,3.30
2019-05-14T03:57:35.850Z,3.10
2019-05-14T03:57:40.219Z,2.77
2019-05-14T03:58:39.132Z,3.30
2019-05-14T03:59:35.983Z,3.00
2019-05-14T04:00:10.483Z,2.50
2019-05-14T04:00:38.869Z,3.30
2019-05-14T04:01:35.859Z,3.60
2019-05-14T04:02:38.914Z,2.90
2019-05-14T04:02:40.243Z,3.13
2019-05-14T04:03:35.892Z,3.60
2019-05-14T04:04:39.080Z,3.60
2019-05-14T04:05:09.736Z,3.67
2019-05-14T04:05:36.001Z,3.00
2019-05-14T04:06:35.912Z,3.10
2019-05-14T04:07:39.111Z,3.30
2019-05-14T04:07:39.507Z,2.97
2019-05-14T04:08:38.892Z,3.20
2019-05-14T04:09:35.951Z,3.00
2019-05-14T04:10:10.235Z,2.87
2019-05-14T04:10:39.108Z,2.90
2019-05-14T04:11:35.982Z,3.30
2019-05-14T04:12:36.001Z,3.60
2019-05-14T04:12:40.477Z,2.90
2019-05-14T04:13:36.074Z,3.00
2019-05-14T04:14:36.080Z,3.60
2019-05-14T04:15:09.866Z,3.30
2019-05-14T04:15:39.045Z,3.70
2019-05-14T04:16:36.060Z,3.40
2019-05-14T04:17:40.964Z,3.30
2019-05-14T04:17:42.371Z,2.87
2019-05-14T04:18:39.771Z,3.20
2019-05-14T04:19:39.182Z,3.10
2019-05-14T04:20:09.800Z,2.77
2019-05-14T04:20:39.123Z,3.20
2019-05-14T04:21:36.131Z,3.50
2019-05-14T04:22:39.093Z,2.90
2019-05-14T04:22:40.449Z,3.30
2019-05-14T04:23:39.317Z,3.50
2019-05-14T04:24:38.097Z,3.60
2019-05-14T04:25:10.959Z,2.83
2019-05-14T04:25:38.990Z,3.30
2019-05-14T04:26:53.479Z,3.40
2019-05-14T04:27:36.221Z,3.50
2019-05-14T04:27:41.461Z,3.33
2019-05-14T04:28:39.237Z,3.20
2019-05-14T04:29:39.430Z,3.20
2019-05-14T04:30:10.712Z,3.27
2019-05-14T04:30:39.710Z,3.30
2019-05-14T04:31:39.053Z,3.20
2019-05-14T04:32:39.286Z,3.40
2019-05-14T04:32:41.331Z,3.53
2019-05-14T04:33:38.937Z,4.20
2019-05-14T04:34:39.476Z,3.90
2019-05-14T04:35:10.344Z,3.47
2019-05-14T04:35:39.882Z,3.60
2019-05-14T04:36:39.129Z,4.00
2019-05-14T04:37:39.644Z,3.90
2019-05-14T04:37:40.210Z,2.93
2019-05-14T04:38:36.397Z,3.40
2019-05-14T04:39:39.267Z,4.00
2019-05-14T04:40:10.265Z,2.87
2019-05-14T04:40:36.427Z,3.60
2019-05-14T04:41:39.373Z,3.50
2019-05-14T04:42:39.868Z,3.70
2019-05-14T04:42:40.115Z,3.33
2019-05-14T04:43:39.604Z,3.80
2019-05-14T04:44:40.025Z,3.20
2019-05-14T04:45:11.091Z,3.40
2019-05-14T04:45:39.476Z,3.60
2019-05-14T04:46:39.380Z,3.70
2019-05-14T04:47:40.964Z,3.70
2019-05-14T04:47:42.055Z,3.37
2019-05-14T04:48:42.311Z,3.80
2019-05-14T04:49:39.548Z,4.10
2019-05-14T04:50:10.958Z,3.33
2019-05-14T04:50:40.251Z,3.70
2019-05-14T04:51:39.664Z,3.90
2019-05-14T04:52:39.941Z,3.90
2019-05-14T04:52:40.624Z,3.00
2019-05-14T04:53:39.314Z,3.80
2019-05-14T04:54:39.371Z,4.20
2019-05-14T04:55:10.098Z,3.60
2019-05-14T04:55:39.938Z,4.30
2019-05-14T04:56:39.674Z,4.20
2019-05-14T04:57:39.192Z,3.60
2019-05-14T04:57:39.546Z,4.20
2019-05-14T04:58:40.480Z,3.70
2019-05-14T04:59:39.732Z,4.20
2019-05-14T05:00:12.141Z,3.57
2019-05-14T05:00:39.191Z,4.00
2019-05-14T05:01:39.914Z,3.90
2019-05-14T05:02:39.793Z,3.80
2019-05-14T05:02:39.939Z,4.77
2019-05-14T05:03:39.864Z,3.90
2019-05-14T05:04:40.894Z,3.20
2019-05-14T05:05:09.298Z,4.17
2019-05-14T05:05:39.377Z,3.70
2019-05-14T05:06:39.719Z,3.70
2019-05-14T05:07:39.415Z,3.50
2019-05-14T05:07:40.250Z,3.93
2019-05-14T05:08:39.510Z,3.90
2019-05-14T05:09:39.858Z,3.50
2019-05-14T05:10:10.194Z,3.27
2019-05-14T05:10:39.669Z,3.90
2019-05-14T05:11:39.374Z,3.30
2019-05-14T05:12:38.728Z,3.50
2019-05-14T05:12:39.387Z,3.40
2019-05-14T05:13:39.689Z,3.60
2019-05-14T05:14:38.917Z,3.20
2019-05-14T05:15:09.318Z,3.47
2019-05-14T05:15:39.401Z,3.40
2019-05-14T05:16:39.180Z,3.30
2019-05-14T05:17:46.628Z,3.40
2019-05-14T05:17:47.018Z,4.07
2019-05-14T05:18:39.742Z,3.80
2019-05-14T05:19:39.815Z,3.40
2019-05-14T05:20:10.068Z,3.90
2019-05-14T05:20:39.370Z,3.80
2019-05-14T05:21:38.736Z,3.50
2019-05-14T05:22:39.406Z,3.80
2019-05-14T05:22:39.739Z,3.70
2019-05-14T05:23:38.691Z,3.30
2019-05-14T05:24:38.072Z,3.70
2019-05-14T05:25:08.869Z,3.57
2019-05-14T05:25:38.454Z,3.40
2019-05-14T05:26:39.233Z,3.20
2019-05-14T05:27:38.230Z,3.30
2019-05-14T05:27:38.283Z,3.30
2019-05-14T05:28:39.129Z,3.30
2019-05-14T05:29:39.265Z,3.60
2019-05-14T05:30:08.479Z,2.67
2019-05-14T05:30:38.564Z,3.30
2019-05-14T05:31:38.154Z,3.50
2019-05-14T05:32:38.851Z,3.50
2019-05-14T05:32:38.865Z,3.27
2019-05-14T05:33:38.369Z,3.10
2019-05-14T05:34:38.875Z,3.60
2019-05-14T05:35:09.513Z,3.50
2019-05-14T05:35:40.279Z,3.60
2019-05-14T05:36:38.056Z,3.40
2019-05-14T05:37:38.486Z,3.70
2019-05-14T05:37:38.705Z,4.00
2019-05-14T05:38:39.434Z,3.60
2019-05-14T05:39:38.553Z,3.70
2019-05-14T05:40:09.231Z,3.33
2019-05-14T05:40:39.146Z,3.60
2019-05-14T05:41:38.463Z,3.50
2019-05-14T05:42:38.556Z,3.20
2019-05-14T05:42:38.768Z,3.20
2019-05-14T05:43:39.333Z,3.60
2019-05-14T05:44:39.404Z,3.00
2019-05-14T05:45:08.182Z,3.37
2019-05-14T05:45:38.152Z,3.30
2019-05-14T05:46:38.800Z,3.40
2019-05-14T05:47:39.042Z,3.83
2019-05-14T05:47:39.107Z,3.40
2019-05-14T05:48:38.915Z,3.50
2019-05-14T05:49:38.195Z,3.80
2019-05-14T05:50:08.745Z,3.53
2019-05-14T05:50:38.857Z,4.40
2019-05-14T05:51:39.240Z,4.10
2019-05-14T05:52:38.713Z,3.80
2019-05-14T05:52:38.845Z,4.20
2019-05-14T05:53:39.319Z,4.00
2019-05-14T05:54:38.379Z,4.00
2019-05-14T05:55:09.131Z,4.17
2019-05-14T05:55:39.478Z,4.40
2019-05-14T05:56:38.742Z,4.30
2019-05-14T05:57:39.177Z,4.40
2019-05-14T05:57:39.236Z,4.40
2019-05-14T05:58:39.774Z,4.70
2019-05-14T05:59:39.372Z,5.00
2019-05-14T06:00:09.464Z,4.87
2019-05-14T06:00:39.843Z,5.20
2019-05-14T06:01:45.763Z,4.60
2019-05-14T06:02:39.864Z,5.00
2019-05-14T06:02:40.050Z,5.00
2019-05-14T06:03:39.320Z,4.90
2019-05-14T06:04:39.200Z,4.70
2019-05-14T06:05:09.066Z,4.80
2019-05-14T06:05:38.856Z,5.00
2019-05-14T06:06:39.033Z,4.70
2019-05-14T06:07:39.468Z,4.60
2019-05-14T06:07:39.498Z,5.33
2019-05-14T06:08:38.793Z,5.10
2019-05-14T06:09:38.407Z,5.30
2019-05-14T06:10:08.846Z,5.27
2019-05-14T06:10:39.997Z,4.50
2019-05-14T06:11:38.344Z,4.50
2019-05-14T06:12:38.766Z,4.80
2019-05-14T06:12:38.903Z,4.97
2019-05-14T06:13:39.046Z,4.80
2019-05-14T06:14:38.513Z,4.80
2019-05-14T06:15:08.746Z,4.67
2019-05-14T06:15:45.704Z,4.40
2019-05-14T06:16:38.577Z,5.00
2019-05-14T06:17:39.188Z,5.40
2019-05-14T06:17:39.195Z,4.80
2019-05-14T06:18:39.349Z,5.10
2019-05-14T06:19:38.486Z,4.90
2019-05-14T06:20:08.642Z,4.67
2019-05-14T06:20:38.839Z,4.90
2019-05-14T06:21:39.781Z,4.60
2019-05-14T06:22:38.500Z,4.93
2019-05-14T06:22:38.688Z,4.70
2019-05-14T06:23:38.838Z,5.00
2019-05-14T06:24:39.101Z,4.80
2019-05-14T06:25:11.005Z,4.53
2019-05-14T06:25:40.080Z,4.70
2019-05-14T06:26:38.562Z,5.10
2019-05-14T06:27:38.190Z,4.43
2019-05-14T06:27:38.529Z,4.80
2019-05-14T06:28:40.783Z,5.10
2019-05-14T06:29:38.624Z,4.50
2019-05-14T06:30:09.128Z,4.10
2019-05-14T06:30:39.504Z,4.80
2019-05-14T06:31:38.895Z,4.60
2019-05-14T06:32:38.693Z,4.20
2019-05-14T06:32:38.967Z,4.50
2019-05-14T06:33:39.331Z,4.80
2019-05-14T06:34:38.680Z,4.80
2019-05-14T06:35:08.782Z,5.13
2019-05-14T06:35:39.575Z,4.80
2019-05-14T06:36:39.541Z,4.50
2019-05-14T06:37:38.555Z,4.73
2019-05-14T06:37:38.774Z,4.60
2019-05-14T06:38:39.121Z,4.50
2019-05-14T06:39:39.215Z,4.50
2019-05-14T06:40:08.854Z,4.67
2019-05-14T06:40:39.569Z,4.60
2019-05-14T06:41:42.595Z,4.80
2019-05-14T06:42:39.394Z,4.73
2019-05-14T06:42:39.569Z,4.80
2019-05-14T06:43:39.382Z,5.10
2019-05-14T06:44:38.893Z,4.20
2019-05-14T06:45:09.134Z,4.13
2019-05-14T06:45:39.268Z,4.20
2019-05-14T06:46:39.218Z,4.20
2019-05-14T06:47:38.361Z,4.90
2019-05-14T06:47:38.959Z,4.70
2019-05-14T06:48:39.659Z,4.20
2019-05-14T06:49:39.005Z,4.40
2019-05-14T06:50:08.504Z,4.13
2019-05-14T06:50:39.372Z,4.70
2019-05-14T06:51:39.476Z,4.60
2019-05-14T06:52:38.746Z,4.37
2019-05-14T06:52:39.075Z,4.40
2019-05-14T06:53:39.470Z,4.10
2019-05-14T06:54:39.109Z,4.30
2019-05-14T06:55:08.972Z,4.37
2019-05-14T06:55:39.419Z,4.10
2019-05-14T06:56:39.149Z,4.40
2019-05-14T06:57:39.287Z,3.73
2019-05-14T06:57:39.558Z,4.30
2019-05-14T06:58:39.226Z,4.00
2019-05-14T06:59:39.219Z,4.00
2019-05-14T07:00:08.696Z,4.30
2019-05-14T07:00:39.616Z,4.20
2019-05-14T07:01:39.253Z,4.10
2019-05-14T07:02:43.291Z,4.30
2019-05-14T07:02:43.673Z,4.30
2019-05-14T07:03:39.298Z,4.00
2019-05-14T07:04:39.634Z,4.90
2019-05-14T07:05:08.503Z,4.17
2019-05-14T07:05:39.340Z,4.30
2019-05-14T07:06:39.365Z,4.20
2019-05-14T07:07:40.148Z,3.73
2019-05-14T07:07:40.352Z,4.10
2019-05-14T07:08:39.517Z,4.40
2019-05-14T07:09:39.432Z,4.30
2019-05-14T07:10:08.922Z,3.87
2019-05-14T07:10:39.642Z,4.20
2019-05-14T07:11:39.486Z,4.00
2019-05-14T07:12:38.705Z,4.10
2019-05-14T07:12:39.497Z,4.10
2019-05-14T07:13:39.519Z,4.50
2019-05-14T07:14:39.546Z,4.20
2019-05-14T07:15:09.319Z,3.90
2019-05-14T07:15:39.559Z,4.10
2019-05-14T07:16:39.576Z,4.30
2019-05-14T07:17:38.676Z,3.70
2019-05-14T07:17:39.606Z,3.90
2019-05-14T07:18:52.990Z,3.90
2019-05-14T07:19:39.644Z,3.70
2019-05-14T07:20:08.912Z,4.10
2019-05-14T07:20:39.663Z,3.40
2019-05-14T07:21:39.692Z,3.60
2019-05-14T07:22:39.039Z,3.40
2019-05-14T07:22:39.722Z,3.70
2019-05-14T07:23:39.728Z,3.30
2019-05-14T07:24:40.668Z,3.40
2019-05-14T07:25:09.849Z,2.80
2019-05-14T07:25:39.893Z,2.80
2019-05-14T07:26:39.794Z,3.40
2019-05-14T07:27:39.330Z,3.20
2019-05-14T07:27:39.814Z,3.10
2019-05-14T07:28:42.525Z,3.30
2019-05-14T07:29:39.857Z,3.30
2019-05-14T07:30:08.972Z,3.17
2019-05-14T07:30:39.883Z,3.50
2019-05-14T07:31:39.905Z,3.60
2019-05-14T07:32:39.501Z,2.77
2019-05-14T07:32:39.931Z,3.30
2019-05-14T07:33:39.946Z,3.20
2019-05-14T07:34:39.964Z,3.00
2019-05-14T07:35:09.278Z,2.60
2019-05-14T07:35:39.985Z,3.30
2019-05-14T07:36:40.005Z,2.80
2019-05-14T07:37:39.534Z,2.77
2019-05-14T07:37:40.040Z,2.80
2019-05-14T07:38:40.050Z,2.80
2019-05-14T07:39:40.068Z,2.90
2019-05-14T07:40:09.023Z,3.00
2019-05-14T07:40:40.095Z,3.50
2019-05-14T07:41:40.107Z,2.80
2019-05-14T07:42:38.519Z,2.60
2019-05-14T07:42:40.128Z,2.80
2019-05-14T07:43:40.148Z,3.00
2019-05-14T07:44:40.170Z,3.00
2019-05-14T07:45:09.623Z,2.80
2019-05-14T07:45:40.198Z,3.10
2019-05-14T07:46:40.212Z,2.70
2019-05-14T07:47:38.865Z,2.80
2019-05-14T07:47:40.235Z,2.80
2019-05-14T07:48:40.268Z,2.50
2019-05-14T07:49:40.278Z,2.50
2019-05-14T07:50:08.751Z,2.37
2019-05-14T07:50:40.297Z,2.70
2019-05-14T07:51:40.322Z,2.30
2019-05-14T07:52:45.249Z,2.07
2019-05-14T07:52:45.353Z,2.20
2019-05-14T07:53:42.547Z,2.30
2019-05-14T07:54:40.387Z,2.10
2019-05-14T07:55:09.293Z,2.00
2019-05-14T07:55:40.403Z,2.40
2019-05-14T07:56:40.436Z,2.20
2019-05-14T07:57:39.273Z,2.37
2019-05-14T07:57:40.454Z,2.00
2019-05-14T07:58:40.471Z,2.10
2019-05-14T07:59:40.488Z,2.20
2019-05-14T08:00:08.857Z,2.00
2019-05-14T08:00:40.533Z,2.10
2019-05-14T08:01:40.542Z,2.20
2019-05-14T08:02:38.076Z,2.00
2019-05-14T08:02:40.555Z,2.30
2019-05-14T08:03:40.576Z,1.90
2019-05-14T08:04:40.593Z,2.00
2019-05-14T08:05:08.750Z,1.60
2019-05-14T08:05:40.617Z,1.70
2019-05-14T08:06:40.643Z,1.80
2019-05-14T08:07:38.794Z,1.80
2019-05-14T08:07:40.654Z,1.90
2019-05-14T08:08:40.677Z,2.10
2019-05-14T08:09:40.706Z,2.10
2019-05-14T08:10:08.998Z,1.80
2019-05-14T08:10:40.716Z,2.10
2019-05-14T08:11:40.740Z,1.90
2019-05-14T08:12:39.171Z,1.70
2019-05-14T08:12:40.757Z,2.10
2019-05-14T08:13:42.630Z,2.10
2019-05-14T08:14:54.866Z,2.20
2019-05-14T08:15:17.818Z,2.43
2019-05-14T08:15:40.818Z,2.40
2019-05-14T08:16:40.842Z,2.40
2019-05-14T08:17:38.962Z,2.70
2019-05-14T08:17:40.866Z,2.60
2019-05-14T08:18:40.883Z,2.60
2019-05-14T08:19:40.937Z,2.30
2019-05-14T08:20:09.001Z,2.27
2019-05-14T08:20:40.913Z,2.50
2019-05-14T08:21:40.934Z,2.60
2019-05-14T08:22:38.401Z,2.20
2019-05-14T08:22:40.955Z,2.50
2019-05-14T08:23:40.973Z,2.30
2019-05-14T08:24:40.991Z,2.50
2019-05-14T08:25:08.563Z,2.33
2019-05-14T08:25:41.010Z,2.60
2019-05-14T08:26:42.985Z,2.60
2019-05-14T08:27:38.956Z,2.73
2019-05-14T08:27:41.052Z,2.30
2019-05-14T08:28:41.069Z,2.80
2019-05-14T08:29:41.087Z,2.60
2019-05-14T08:30:08.300Z,2.60
2019-05-14T08:30:41.104Z,2.50
2019-05-14T08:31:41.121Z,2.30
2019-05-14T08:32:39.073Z,2.23
2019-05-14T08:32:41.141Z,2.30
2019-05-14T08:33:41.158Z,2.40
2019-05-14T08:34:41.177Z,2.50
2019-05-14T08:35:09.016Z,1.90
2019-05-14T08:35:41.198Z,2.60
2019-05-14T08:36:41.214Z,2.40
2019-05-14T08:37:38.676Z,2.47
2019-05-14T08:37:41.236Z,2.10
2019-05-14T08:38:45.399Z,2.20
2019-05-14T08:39:41.311Z,2.40
2019-05-14T08:40:09.502Z,1.60
2019-05-14T08:40:41.294Z,2.30
2019-05-14T08:41:41.308Z,2.00
2019-05-14T08:42:38.599Z,1.77
2019-05-14T08:42:41.323Z,2.40
2019-05-14T08:43:41.351Z,1.80
2019-05-14T08:44:41.359Z,1.70
2019-05-14T08:45:10.589Z,1.83
2019-05-14T08:45:41.378Z,2.00
2019-05-14T08:46:44.702Z,2.10
2019-05-14T08:47:38.998Z,1.60
2019-05-14T08:47:41.414Z,2.10
2019-05-14T08:48:41.432Z,2.30
2019-05-14T08:49:46.221Z,1.90
2019-05-14T08:50:09.404Z,1.80
2019-05-14T08:50:41.467Z,2.10
2019-05-14T08:51:41.486Z,2.10
2019-05-14T08:52:39.185Z,1.50
2019-05-14T08:52:41.503Z,1.80
2019-05-14T08:53:41.522Z,1.70
2019-05-14T08:54:41.539Z,1.60
2019-05-14T08:55:10.872Z,1.23
2019-05-14T08:55:41.557Z,1.90
2019-05-14T08:56:41.579Z,1.50
2019-05-14T08:57:39.318Z,1.63
2019-05-14T08:57:41.670Z,2.00
2019-05-14T08:58:41.615Z,1.80
2019-05-14T08:59:41.657Z,1.60
2019-05-14T09:00:13.773Z,1.63
2019-05-14T09:00:41.645Z,1.90
2019-05-14T09:01:57.248Z,1.70
2019-05-14T09:02:39.410Z,1.63
2019-05-14T09:02:41.681Z,1.70
2019-05-14T09:03:41.722Z,1.80
2019-05-14T09:04:43.290Z,1.90
2019-05-14T09:05:10.335Z,1.63
2019-05-14T09:05:41.740Z,1.70
2019-05-14T09:06:41.756Z,2.00
2019-05-14T09:07:38.819Z,1.50
2019-05-14T09:07:41.779Z,1.70
2019-05-14T09:08:41.803Z,2.00
2019-05-14T09:09:41.869Z,1.90
2019-05-14T09:10:08.695Z,2.10
2019-05-14T09:10:41.854Z,1.80
2019-05-14T09:11:45.340Z,2.50
2019-05-14T09:12:38.835Z,1.90
2019-05-14T09:12:42.046Z,2.10
2019-05-14T09:13:41.897Z,2.20
2019-05-14T09:14:41.912Z,2.10
2019-05-14T09:15:09.743Z,1.77
2019-05-14T09:15:41.934Z,2.30
2019-05-14T09:16:46.963Z,2.40
2019-05-14T09:17:39.192Z,1.80
2019-05-14T09:17:41.956Z,2.00
2019-05-14T09:18:41.973Z,2.50
2019-05-14T09:19:57.732Z,1.60
2019-05-14T09:20:11.056Z,1.93
2019-05-14T09:20:42.014Z,2.00
2019-05-14T09:21:42.035Z,2.50
2019-05-14T09:22:39.780Z,2.17
2019-05-14T09:22:42.069Z,2.00
2019-05-14T09:23:42.251Z,2.40
2019-05-14T09:24:42.086Z,2.40
2019-05-14T09:25:09.024Z,1.77
2019-05-14T09:25:46.961Z,2.30
2019-05-14T09:26:42.121Z,1.90
2019-05-14T09:27:38.680Z,1.80
2019-05-14T09:27:42.132Z,2.00
2019-05-14T09:28:42.160Z,2.10
2019-05-14T09:29:42.211Z,2.30
2019-05-14T09:30:09.660Z,1.80